Time;durP1;ratioP1;P1;durP2;ratioP2;P2;SDS_P1;SDS_P2;PMS_P1;PMS_P2;Temp;Humidity;BMP_temperature;BMP_pressure;BME280_temperature;BME280_humidity;BME280_pressure;Samples;Min_cycle;Max_cycle;Signal;HPM_P1;HPM_P2
2024/02/22 00:05:12;;;;;;;12.10;6.80;;;;;;;2.90;100.00;98687.36;271962;1274;22527;-93
2024/02/22 00:11:17;;;;;;;9.80;5.30;;;;;;;2.63;100.00;98675.25;272096;1272;23537;-92
2024/02/22 00:17:19;;;;;;;11.80;5.70;;;;;;;2.47;100.00;98672.10;271976;1267;22245;-93
2024/02/22 00:23:25;;;;;;;12.30;5.40;;;;;;;2.37;100.00;98666.63;272637;1273;22191;-92
2024/02/22 00:29:27;;;;;;;10.80;5.80;;;;;;;2.28;100.00;98660.20;272107;1273;22253;-92
2024/02/22 00:35:30;;;;;;;12.70;6.10;;;;;;;2.16;100.00;98655.77;272189;1274;22412;-92
2024/02/22 00:41:50;;;;;;;9.60;5.30;;;;;;;2.06;100.00;98657.71;272081;1273;22364;-91
2024/02/22 00:47:52;;;;;;;9.40;4.80;;;;;;;2.01;100.00;98662.52;272107;1273;22203;-91
2024/02/22 00:53:57;;;;;;;17.00;7.40;;;;;;;1.86;100.00;98652.30;272113;1267;22948;-92
2024/02/22 00:59:59;;;;;;;22.20;10.00;;;;;;;1.77;100.00;98647.15;270787;1273;22217;-92
2024/02/22 01:06:02;;;;;;;24.10;11.70;;;;;;;1.64;100.00;98633.94;271979;1273;22874;-91
2024/02/22 01:12:04;;;;;;;24.20;9.30;;;;;;;1.52;100.00;98617.02;269144;1273;23355;-92
2024/02/22 01:18:06;;;;;;;24.10;10.90;;;;;;;1.43;100.00;98603.41;268790;1274;22684;-92
2024/02/22 01:24:08;;;;;;;21.80;10.20;;;;;;;1.37;100.00;98589.44;270796;1271;23385;-92
2024/02/22 01:30:10;;;;;;;23.00;10.90;;;;;;;1.33;100.00;98580.17;271473;1273;22735;-91
2024/02/22 01:36:12;;;;;;;13.70;7.10;;;;;;;1.27;100.00;98569.63;270923;1273;22176;-92
2024/02/22 01:42:14;;;;;;;16.60;8.00;;;;;;;1.21;100.00;98560.91;272118;1273;23319;-91
2024/02/22 01:48:17;;;;;;;16.40;7.00;;;;;;;1.12;100.00;98551.98;272091;1273;22206;-92
2024/02/22 01:54:19;;;;;;;22.60;11.80;;;;;;;1.03;100.00;98544.20;272163;1273;22337;-92
2024/02/22 02:00:23;;;;;;;16.70;8.10;;;;;;;0.94;100.00;98533.67;271859;1273;22454;-91
2024/02/22 02:06:26;;;;;;;22.30;9.80;;;;;;;0.83;100.00;98523.23;269498;1273;22338;-91
2024/02/22 02:12:28;;;;;;;30.30;14.70;;;;;;;0.75;100.00;98508.58;272176;1274;22357;-93
2024/02/22 02:18:30;;;;;;;33.60;15.80;;;;;;;0.72;100.00;98494.20;271752;1273;24836;-91
2024/02/22 02:24:54;;;;;;;19.80;11.10;;;;;;;0.66;100.00;98487.86;272050;1273;22390;-92
2024/02/22 02:37:39;;;;;;;23.10;12.80;;;;;;;0.62;100.00;98474.40;270370;1274;22427;-90
2024/02/22 02:43:43;;;;;;;21.60;10.80;;;;;;;0.63;100.00;98468.38;271776;1275;23761;-91
2024/02/22 02:49:47;;;;;;;23.20;11.80;;;;;;;0.65;100.00;98464.96;271877;1276;22408;-90
2024/02/22 02:55:53;;;;;;;32.70;16.30;;;;;;;0.64;100.00;98452.78;271839;1274;23429;-90
2024/02/22 03:01:55;;;;;;;32.50;16.00;;;;;;;0.56;100.00;98438.73;271855;1275;22246;-89
2024/02/22 03:07:57;;;;;;;40.80;19.50;;;;;;;0.49;100.00;98423.68;271872;1275;22463;-92
2024/02/22 03:13:59;;;;;;;38.40;18.60;;;;;;;0.45;100.00;98423.52;270394;1274;23167;-90
2024/02/22 03:20:04;;;;;;;36.70;16.20;;;;;;;0.41;100.00;98417.64;270998;1275;23237;-91
2024/02/22 03:26:09;;;;;;;31.30;15.30;;;;;;;0.39;100.00;98411.02;271863;1274;23778;-90
2024/02/22 03:32:11;;;;;;;46.70;20.10;;;;;;;0.47;100.00;98397.73;271881;1263;22431;-91
2024/02/22 03:38:14;;;;;;;36.50;17.70;;;;;;;0.54;100.00;98388.63;271798;1274;22319;-90
2024/02/22 03:44:17;;;;;;;42.80;21.50;;;;;;;0.60;100.00;98379.57;271844;1274;22398;-92
2024/02/22 03:50:19;;;;;;;46.60;22.10;;;;;;;0.65;100.00;98375.70;271409;1274;22283;-90
2024/02/22 03:56:21;;;;;;;42.60;19.50;;;;;;;0.71;100.00;98374.38;271555;1275;22399;-90
2024/02/22 04:02:23;;;;;;;45.50;20.80;;;;;;;0.71;100.00;98374.40;271755;1274;23646;-90
2024/02/22 04:08:25;;;;;;;48.20;21.90;;;;;;;0.74;100.00;98367.95;271745;1275;22465;-91
2024/02/22 04:14:27;;;;;;;53.10;28.30;;;;;;;0.78;100.00;98357.98;271812;1274;22406;-90
2024/02/22 04:20:29;;;;;;;60.20;27.00;;;;;;;0.85;100.00;98341.77;271358;1274;23919;-90
2024/02/22 04:26:31;;;;;;;52.20;24.70;;;;;;;0.86;100.00;98334.34;270800;1274;22378;-91
2024/02/22 04:32:32;;;;;;;50.60;23.20;;;;;;;0.88;100.00;98324.88;271784;1274;22431;-90
2024/02/22 04:38:34;;;;;;;46.10;21.60;;;;;;;0.90;100.00;98315.71;271766;1274;22522;-91
2024/02/22 04:44:36;;;;;;;48.00;23.20;;;;;;;0.91;100.00;98303.28;271828;1274;22631;-90
2024/02/22 04:50:39;;;;;;;48.70;23.70;;;;;;;0.94;100.00;98297.23;271870;1274;22280;-90
2024/02/22 04:56:40;;;;;;;59.50;26.10;;;;;;;1.01;100.00;98290.99;271824;1274;22273;-92
2024/02/22 05:02:43;;;;;;;75.20;32.20;;;;;;;1.05;100.00;98287.26;270568;1274;23658;-91
2024/02/22 05:08:45;;;;;;;83.10;32.90;;;;;;;1.08;100.00;98283.66;271493;1274;23291;-91
2024/02/22 05:14:47;;;;;;;78.80;32.30;;;;;;;1.16;100.00;98287.02;271721;1275;22298;-91
2024/02/22 05:20:50;;;;;;;73.40;30.40;;;;;;;1.24;100.00;98285.33;271138;1275;22584;-91
2024/02/22 05:26:52;;;;;;;59.90;25.30;;;;;;;1.31;100.00;98284.73;268417;1274;22589;-92
2024/02/22 05:32:55;;;;;;;64.50;28.50;;;;;;;1.36;100.00;98277.89;269678;1274;23727;-90
2024/02/22 05:39:01;;;;;;;65.00;27.40;;;;;;;1.43;100.00;98277.20;271512;1275;22395;-91
2024/02/22 05:45:04;;;;;;;62.00;27.80;;;;;;;1.49;100.00;98282.73;271668;1269;23038;-91
2024/02/22 05:51:05;;;;;;;59.50;27.10;;;;;;;1.56;100.00;98284.61;271732;1275;22371;-91
2024/02/22 05:57:08;;;;;;;66.30;28.30;;;;;;;1.63;100.00;98277.30;271608;1274;22400;-91
2024/02/22 06:03:10;;;;;;;62.10;28.50;;;;;;;1.66;100.00;98281.24;271702;1274;22430;-92
2024/02/22 06:09:13;;;;;;;58.10;28.20;;;;;;;1.69;100.00;98281.05;271301;1266;22447;-90
2024/02/22 06:15:15;;;;;;;58.40;26.70;;;;;;;1.75;100.00;98268.44;271120;1274;22310;-91
2024/02/22 06:21:17;;;;;;;54.00;25.40;;;;;;;1.81;100.00;98261.27;271732;1274;22537;-90
2024/02/22 06:27:22;;;;;;;42.50;21.90;;;;;;;1.91;100.00;98264.08;271218;1274;24456;-92
2024/02/22 06:33:24;;;;;;;47.40;25.00;;;;;;;2.06;100.00;98244.16;271468;1274;22203;-91
2024/02/22 06:39:29;;;;;;;52.30;25.00;;;;;;;2.21;100.00;98240.51;270920;1264;23676;-91
2024/02/22 06:45:31;;;;;;;66.90;30.90;;;;;;;2.31;100.00;98234.23;268944;1274;22589;-91
2024/02/22 06:51:36;;;;;;;74.90;35.30;;;;;;;2.43;100.00;98218.72;270349;1260;22976;-90
2024/02/22 06:57:38;;;;;;;69.90;32.00;;;;;;;2.56;100.00;98201.95;270138;1274;23960;-90
2024/02/22 07:03:42;;;;;;;60.60;28.70;;;;;;;2.72;100.00;98188.34;269994;1274;22380;-90
2024/02/22 07:09:44;;;;;;;39.50;19.50;;;;;;;2.91;100.00;98185.70;269685;1274;24321;-91
2024/02/22 07:15:47;;;;;;;40.50;19.80;;;;;;;3.05;100.00;98179.38;271223;1274;22438;-92
2024/02/22 07:21:49;;;;;;;40.20;20.00;;;;;;;3.23;100.00;98172.04;271156;1274;23585;-91
2024/02/22 07:27:51;;;;;;;43.70;17.90;;;;;;;3.40;100.00;98168.55;269164;1274;25148;-90
2024/02/22 07:33:54;;;;;;;32.40;18.30;;;;;;;3.56;100.00;98157.38;269062;1274;22589;-90
2024/02/22 07:39:56;;;;;;;40.20;19.30;;;;;;;3.72;100.00;98145.17;271198;1274;23129;-90
2024/02/22 07:46:02;;;;;;;37.20;17.50;;;;;;;3.91;100.00;98131.15;270237;1274;23266;-90
2024/02/22 07:52:06;;;;;;;33.40;19.70;;;;;;;4.13;100.00;98122.84;271776;1274;23671;-90
2024/02/22 07:58:08;;;;;;;39.90;18.50;;;;;;;4.36;100.00;98115.60;271723;1274;22381;-90
2024/02/22 08:04:13;;;;;;;34.60;18.70;;;;;;;4.58;100.00;98104.29;271645;1274;24047;-92
2024/02/22 08:10:17;;;;;;;31.70;16.40;;;;;;;4.79;100.00;98092.78;271689;1274;22317;-90
2024/02/22 08:16:19;;;;;;;28.70;15.30;;;;;;;5.03;100.00;98083.54;271699;1274;22403;-90
2024/02/22 08:22:21;;;;;;;30.40;15.40;;;;;;;5.26;100.00;98078.29;271744;1274;22328;-90
2024/02/22 08:28:24;;;;;;;34.70;17.10;;;;;;;5.50;100.00;98067.92;271780;1274;22323;-90
2024/02/22 08:34:27;;;;;;;35.30;17.20;;;;;;;5.80;100.00;98065.29;270246;1274;22591;-90
2024/02/22 08:40:29;;;;;;;47.40;19.40;;;;;;;6.14;100.00;98063.00;271363;1274;22432;-91
2024/02/22 08:46:31;;;;;;;40.60;19.20;;;;;;;6.59;100.00;98054.79;271728;1259;22373;-90
2024/02/22 08:52:36;;;;;;;34.00;16.70;;;;;;;7.05;100.00;98045.95;271756;1274;22405;-90
2024/02/22 08:58:38;;;;;;;31.30;16.10;;;;;;;7.46;100.00;98040.96;271647;1274;22273;-89
2024/02/22 09:04:39;;;;;;;31.40;15.80;;;;;;;7.78;100.00;98032.19;271823;1274;22216;-91
2024/02/22 09:10:51;;;;;;;28.90;12.80;;;;;;;8.05;100.00;98021.13;271762;1274;23253;-90
2024/02/22 09:16:55;;;;;;;23.60;10.80;;;;;;;8.39;100.00;98017.50;271561;1274;22338;-90
2024/02/22 09:23:00;;;;;;;18.80;10.10;;;;;;;8.81;100.00;98008.52;271671;1274;23558;-92
2024/02/22 09:29:07;;;;;;;5.30;2.30;;;;;;;9.22;100.00;97995.86;271818;1273;22275;-93
2024/02/22 09:35:22;;;;;;;7.40;3.90;;;;;;;9.74;100.00;97984.83;270459;1274;23077;-93
2024/02/22 09:41:25;;;;;;;5.90;2.70;;;;;;;10.07;100.00;97975.79;269443;1274;22565;-93
2024/02/22 09:47:27;;;;;;;7.40;2.70;;;;;;;10.29;99.91;97966.73;271300;1275;22220;-93
2024/02/22 09:53:30;;;;;;;6.40;2.70;;;;;;;10.40;97.95;97950.98;271243;1274;22699;-93
2024/02/22 09:59:32;;;;;;;6.10;2.70;;;;;;;10.47;88.15;97939.43;269810;1273;24448;-92
2024/02/22 10:05:36;;;;;;;4.10;2.30;;;;;;;10.62;89.79;97928.95;268948;1274;161492;-92
2024/02/22 10:12:07;;;;;;;10.90;3.50;;;;;;;10.92;87.56;97923.59;268808;1274;22572;-91
2024/02/22 10:18:25;;;;;;;6.20;3.00;;;;;;;11.10;80.85;97912.96;268402;1274;23759;-92
2024/02/22 10:24:33;;;;;;;9.30;3.20;;;;;;;11.32;77.86;97905.27;269023;1274;22568;-92
2024/02/22 10:30:46;;;;;;;4.50;2.40;;;;;;;11.64;78.15;97895.19;270874;1274;23244;-92
2024/02/22 10:36:57;;;;;;;5.00;3.20;;;;;;;11.81;77.92;97884.73;270333;1274;22361;-92
2024/02/22 10:43:15;;;;;;;;;;;;;;;;;;;;;
2024/02/22 10:49:26;;;;;;;6.70;2.80;;;;;;;11.80;73.54;97863.36;271544;1267;23585;-93
2024/02/22 10:55:34;;;;;;;6.70;3.10;;;;;;;11.82;74.63;97844.07;271696;1274;22544;-93
2024/02/22 11:01:49;;;;;;;6.70;3.00;;;;;;;11.88;75.07;97827.46;271693;1274;22262;-94
2024/02/22 11:08:18;;;;;;;5.10;2.90;;;;;;;11.90;73.14;97816.00;271410;1274;25368;-93
2024/02/22 11:14:41;;;;;;;6.50;2.70;;;;;;;11.93;73.86;97801.30;269635;1274;22486;-93
2024/02/22 11:27:38;;;;;;;7.20;2.60;;;;;;;12.08;72.35;97778.30;269508;1274;23795;-93
2024/02/22 11:34:27;;;;;;;5.30;3.00;;;;;;;12.13;71.50;97771.95;271138;1274;23506;-93
2024/02/22 11:41:13;;;;;;;5.10;2.60;;;;;;;12.22;72.73;97771.34;271930;1274;22443;-94
2024/02/22 11:47:49;;;;;;;6.10;2.70;;;;;;;12.30;71.96;97763.54;270869;1274;22163;-93
2024/02/22 11:54:20;;;;;;;;;;;;;;;;;;;;;
2024/02/22 12:00:39;;;;;;;7.40;2.50;;;;;;;12.39;72.16;97739.10;271651;1274;22923;-93
2024/02/22 12:06:43;;;;;;;4.30;2.40;;;;;;;12.32;72.97;97735.30;272284;1272;22229;-93
2024/02/22 12:12:50;;;;;;;4.80;2.70;;;;;;;12.32;71.88;97732.08;271649;1274;22324;-93
2024/02/22 12:19:06;;;;;;;5.40;2.70;;;;;;;12.41;71.42;97738.43;270515;1274;22242;-93
2024/02/22 12:25:11;;;;;;;7.70;3.20;;;;;;;12.49;71.87;97729.76;271617;1274;23760;-93
2024/02/22 12:31:16;;;;;;;10.00;4.10;;;;;;;12.59;70.50;97716.64;271630;1275;22385;-94
2024/02/22 12:37:21;;;;;;;7.40;3.80;;;;;;;12.67;71.34;97711.88;271492;1274;22429;-91
2024/02/22 12:43:27;;;;;;;7.50;3.60;;;;;;;12.70;71.51;97714.19;271567;1271;22385;-91
2024/02/22 12:49:32;;;;;;;5.90;3.40;;;;;;;12.69;71.32;97700.47;270442;1275;23198;-90
2024/02/22 12:55:36;;;;;;;8.00;3.70;;;;;;;12.66;70.77;97699.96;269275;1275;22556;-92
2024/02/22 13:01:41;;;;;;;5.70;3.80;;;;;;;12.62;71.30;97687.09;268710;1274;23517;-91
2024/02/22 13:07:45;;;;;;;9.30;4.40;;;;;;;12.52;71.09;97679.60;269452;1274;22463;-93
2024/02/22 13:13:47;;;;;;;7.10;3.60;;;;;;;12.45;70.97;97670.08;270633;1274;24044;-94
2024/02/22 13:19:49;;;;;;;6.20;3.40;;;;;;;12.36;70.77;97649.77;270008;1275;22433;-93
2024/02/22 13:25:56;;;;;;;4.70;3.60;;;;;;;12.24;70.80;97643.95;271338;1275;22581;-93
2024/02/22 13:32:01;;;;;;;7.00;3.50;;;;;;;12.14;70.39;97635.24;268841;1275;22658;-93
2024/02/22 13:38:08;;;;;;;9.40;3.60;;;;;;;12.08;70.10;97629.55;268955;1275;22634;-94
2024/02/22 13:44:13;;;;;;;6.00;4.00;;;;;;;12.02;69.00;97624.33;271225;1274;22552;-92
2024/02/22 13:50:17;;;;;;;7.40;4.70;;;;;;;12.00;68.54;97625.06;271363;1274;23612;-92
2024/02/22 13:56:20;;;;;;;8.40;3.10;;;;;;;12.02;67.30;97615.63;270691;1275;22418;-91
2024/02/22 14:02:23;;;;;;;7.40;4.30;;;;;;;12.05;66.60;97602.87;270073;1275;23574;-93
2024/02/22 14:08:27;;;;;;;6.30;3.30;;;;;;;12.05;66.40;97600.13;270469;1274;22555;-91
2024/02/22 14:14:30;;;;;;;6.30;3.10;;;;;;;11.99;65.80;97600.63;269480;1275;23735;-91
2024/02/22 14:20:35;;;;;;;4.10;2.80;;;;;;;11.90;66.22;97603.14;269328;1275;22550;-92
2024/02/22 14:26:37;;;;;;;6.70;3.80;;;;;;;11.82;65.23;97594.80;269732;1275;22227;-91
2024/02/22 14:32:41;;;;;;;6.50;3.80;;;;;;;11.72;64.26;97583.13;269813;1275;23802;-92
2024/02/22 14:38:45;;;;;;;7.10;4.10;;;;;;;11.63;64.45;97582.09;268947;1274;24253;-91
2024/02/22 14:44:47;;;;;;;7.10;4.10;;;;;;;11.48;64.28;97582.39;270950;1275;22234;-92
2024/02/22 14:50:49;;;;;;;8.70;4.40;;;;;;;11.31;63.46;97578.48;270150;1274;22426;-92
2024/02/22 14:56:51;;;;;;;6.80;4.30;;;;;;;11.13;64.31;97576.06;270398;1275;25655;-92
2024/02/22 15:02:56;;;;;;;7.50;4.20;;;;;;;10.95;65.02;97572.79;270142;1274;22671;-92
2024/02/22 15:08:58;;;;;;;7.60;4.60;;;;;;;10.75;65.19;97575.39;271589;1274;22355;-92
2024/02/22 15:15:01;;;;;;;8.50;5.00;;;;;;;10.55;65.87;97577.66;271624;1274;22504;-93
2024/02/22 15:21:05;;;;;;;8.00;4.70;;;;;;;10.36;66.25;97564.52;271221;1274;22440;-92
2024/02/22 15:27:09;;;;;;;6.30;4.70;;;;;;;10.21;66.77;97557.87;271166;1274;23547;-92
2024/02/22 15:33:15;;;;;;;7.80;4.60;;;;;;;10.07;67.07;97554.25;270868;1274;22456;-93
2024/02/22 15:39:17;;;;;;;8.10;5.10;;;;;;;9.97;67.16;97546.36;270500;1274;22600;-92
2024/02/22 15:45:22;;;;;;;8.00;5.00;;;;;;;9.84;68.14;97537.98;269601;1274;23074;-92
2024/02/22 15:51:30;;;;;;;8.10;4.60;;;;;;;9.74;68.42;97532.20;269912;1274;22569;-91
2024/02/22 15:57:33;;;;;;;8.10;4.00;;;;;;;9.68;68.16;97535.86;269918;1274;22549;-91
2024/02/22 16:03:38;;;;;;;6.00;4.30;;;;;;;9.63;68.42;97535.82;271306;1274;22223;-93
2024/02/22 16:09:43;;;;;;;8.40;4.10;;;;;;;9.55;68.91;97531.11;270946;1274;22590;-92
2024/02/22 16:15:45;;;;;;;6.60;4.50;;;;;;;9.47;69.21;97518.70;269602;1274;23853;-93
2024/02/22 16:21:58;;;;;;;5.30;3.60;;;;;;;9.41;69.30;97506.96;270057;1274;22392;-93
2024/02/22 16:28:01;;;;;;;6.90;3.70;;;;;;;9.33;69.76;97501.33;269935;1274;22540;-91
2024/02/22 16:34:09;;;;;;;5.60;4.20;;;;;;;9.24;70.18;97504.29;269070;1274;23616;-92
2024/02/22 16:40:20;;;;;;;7.50;4.10;;;;;;;9.22;70.53;97499.92;269466;1274;22779;-93
2024/02/22 16:46:26;;;;;;;7.90;4.10;;;;;;;9.21;70.89;97492.21;270050;1274;22455;-91
2024/02/22 16:53:06;;;;;;;6.40;3.60;;;;;;;9.20;71.38;97488.40;270578;1274;22152;-92
2024/02/22 16:59:47;;;;;;;8.40;4.70;;;;;;;9.14;71.81;97487.98;271241;1274;24230;-92
2024/02/22 17:07:32;;;;;;;8.80;5.00;;;;;;;9.08;71.85;97475.86;270892;1274;22430;-91
2024/02/22 17:14:40;;;;;;;8.00;5.40;;;;;;;9.09;71.87;97471.08;270916;1274;22477;-91
2024/02/22 17:20:59;;;;;;;8.00;5.30;;;;;;;9.07;71.90;97463.48;271140;1274;22717;-93
2024/02/22 17:27:40;;;;;;;10.90;7.20;;;;;;;9.05;72.05;97447.02;271435;1274;22616;-93
2024/02/22 17:34:44;;;;;;;;;;;;;;;;;;;;;
2024/02/22 17:40:59;;;;;;;9.80;6.50;;;;;;;8.93;72.94;97440.33;270446;1274;24094;-92
2024/02/22 17:47:03;;;;;;;11.60;6.80;;;;;;;8.81;73.22;97421.70;270903;1274;22398;-93
2024/02/22 17:53:25;;;;;;;;;;;;;;;;;;;;;
2024/02/22 17:59:45;;;;;;;;;;;;;;;8.76;73.87;97394.84;270639;1275;22502;-91
2024/02/22 18:05:50;;;;;;;11.10;6.80;;;;;;;8.73;74.14;97388.78;271249;1274;22216;-91
2024/02/22 18:11:53;;;;;;;10.80;6.80;;;;;;;8.71;74.66;97384.35;270048;1275;22423;-93
2024/02/22 18:17:55;;;;;;;13.00;5.50;;;;;;;8.63;75.03;97385.20;271196;1274;23472;-91
2024/02/22 18:24:11;;;;;;;11.70;5.70;;;;;;;8.60;75.19;97379.45;270424;1274;22695;-93
2024/02/22 18:30:19;;;;;;;10.20;5.10;;;;;;;8.57;75.39;97366.69;270823;1274;22662;-92
2024/02/22 18:36:28;;;;;;;8.80;5.30;;;;;;;8.53;75.60;97362.20;269592;1274;22281;-92
2024/02/22 18:42:32;;;;;;;6.90;3.90;;;;;;;8.54;75.62;97361.89;269181;1274;25265;-92
2024/02/22 18:48:44;;;;;;;8.60;5.20;;;;;;;8.58;75.78;97352.89;269980;1274;22301;-91
2024/02/22 18:54:51;;;;;;;9.40;4.40;;;;;;;8.57;76.12;97352.03;270631;1274;22996;-91
2024/02/22 19:00:56;;;;;;;9.10;4.60;;;;;;;8.56;76.29;97355.24;271195;1274;25340;-92
2024/02/22 19:07:11;;;;;;;7.30;4.50;;;;;;;8.50;76.56;97349.60;269772;1274;22456;-92
2024/02/22 19:13:15;;;;;;;8.00;4.60;;;;;;;8.43;77.02;97344.34;271584;1274;23056;-91
2024/02/22 19:19:22;;;;;;;7.30;3.90;;;;;;;8.47;77.50;97332.63;270407;1274;22562;-92
2024/02/22 19:25:24;;;;;;;5.30;2.90;;;;;;;8.66;77.49;97319.80;269912;1274;22423;-92
2024/02/22 19:31:27;;;;;;;6.10;3.30;;;;;;;8.86;77.48;97311.35;269610;1274;22978;-91
2024/02/22 19:37:29;;;;;;;5.20;3.10;;;;;;;9.01;77.24;97304.36;270629;1275;22458;-91
2024/02/22 19:43:34;;;;;;;5.30;2.70;;;;;;;9.08;77.15;97290.23;271262;1274;22868;-92
2024/02/22 19:49:36;;;;;;;6.20;3.40;;;;;;;9.09;77.41;97282.35;270947;1274;22587;-91
2024/02/22 19:55:37;;;;;;;4.90;3.20;;;;;;;9.13;77.38;97274.98;271341;1274;24053;-91
2024/02/22 20:01:42;;;;;;;5.70;3.30;;;;;;;9.14;77.67;97268.89;271058;1274;22692;-91
2024/02/22 20:07:55;;;;;;;6.00;2.70;;;;;;;9.14;77.75;97257.66;271264;1274;22179;-91
2024/02/22 20:14:06;;;;;;;3.50;2.60;;;;;;;9.17;77.59;97249.83;271254;1275;23077;-93
2024/02/22 20:20:19;;;;;;;5.30;2.40;;;;;;;9.21;77.86;97236.99;271857;1276;22245;-93
2024/02/22 20:26:46;;;;;;;6.60;2.60;;;;;;;9.20;77.94;97225.61;270184;1274;22550;-91
2024/02/22 20:33:20;;;;;;;5.40;2.30;;;;;;;9.20;78.05;97219.21;269734;1274;22566;-92
2024/02/22 20:40:00;;;;;;;4.80;2.90;;;;;;;9.22;78.06;97219.96;270642;1274;22248;-93
2024/02/22 20:46:48;;;;;;;4.60;3.10;;;;;;;9.22;78.22;97220.52;269909;1277;24766;-92
2024/02/22 20:52:56;;;;;;;5.00;3.00;;;;;;;9.20;78.22;97213.75;270740;1275;22403;-92
2024/02/22 20:59:04;;;;;;;5.30;3.10;;;;;;;9.19;78.38;97205.02;269864;1274;22601;-92
2024/02/22 21:05:26;;;;;;;4.70;3.10;;;;;;;9.18;78.52;97202.16;270636;1274;23599;-93
2024/02/22 21:11:59;;;;;;;3.70;2.60;;;;;;;9.10;78.84;97194.30;271212;1270;23185;-93
2024/02/22 21:25:30;;;;;;;;;;;;;;;;;;;;;
2024/02/22 21:32:54;;;;;;;;;;;;;;;;;;;;;
2024/02/22 21:39:26;;;;;;;2.80;2.20;;;;;;;8.87;79.86;97177.40;270087;1274;22525;-92
2024/02/22 21:45:46;;;;;;;4.20;2.50;;;;;;;8.76;80.30;97178.85;270398;1273;22360;-93
2024/02/22 21:51:58;;;;;;;3.40;2.40;;;;;;;8.64;80.56;97171.34;271416;1275;22251;-92
2024/02/22 21:58:00;;;;;;;4.00;2.60;;;;;;;8.58;81.01;97165.23;269932;1274;22390;-92
2024/02/22 22:04:18;;;;;;;5.80;2.50;;;;;;;8.56;81.45;97160.67;268410;1274;2639742;-91
2024/02/22 22:10:25;;;;;;;2.60;2.10;;;;;;;8.48;81.89;97161.05;270876;1274;22722;-93
2024/02/22 22:16:32;;;;;;;6.40;2.50;;;;;;;8.45;81.98;97156.41;269176;1274;22293;-93
2024/02/22 22:22:43;;;;;;;4.60;2.70;;;;;;;8.47;82.03;97162.16;269236;1274;24250;-92
2024/02/22 22:28:52;;;;;;;5.00;2.60;;;;;;;8.50;82.17;97168.14;270476;1274;22566;-92
2024/02/22 22:35:06;;;;;;;5.70;2.70;;;;;;;8.48;82.43;97168.77;271220;1274;22218;-93
2024/02/22 22:41:09;;;;;;;5.20;2.60;;;;;;;8.48;82.61;97166.84;271092;1273;22559;-93
2024/02/22 22:47:19;;;;;;;6.00;3.00;;;;;;;8.45;83.02;97167.70;269943;1274;22580;-92
2024/02/22 22:53:21;;;;;;;5.80;2.30;;;;;;;8.44;83.35;97176.45;269892;1263;22226;-90
2024/02/22 22:59:24;;;;;;;3.00;1.40;;;;;;;8.44;84.00;97185.95;270815;1274;22155;-91
2024/02/22 23:05:26;;;;;;;2.10;1.10;;;;;;;8.45;84.56;97194.74;269188;1274;23261;-91
2024/02/22 23:11:29;;;;;;;2.70;0.90;;;;;;;8.49;84.76;97193.45;270124;1274;22606;-92
2024/02/22 23:17:31;;;;;;;1.40;0.90;;;;;;;8.63;84.69;97188.89;270223;1274;22556;-90
2024/02/22 23:23:33;;;;;;;2.10;1.10;;;;;;;8.80;84.70;97183.88;270843;1274;22647;-92
2024/02/22 23:29:40;;;;;;;1.70;1.00;;;;;;;8.90;84.64;97169.19;270319;1274;22543;-90
2024/02/22 23:35:42;;;;;;;2.70;1.10;;;;;;;9.02;84.69;97160.38;269714;1274;23894;-92
2024/02/22 23:41:46;;;;;;;2.90;1.00;;;;;;;9.13;84.57;97156.36;270146;1274;22395;-93
2024/02/22 23:47:50;;;;;;;2.40;1.30;;;;;;;9.15;84.40;97163.83;271407;1274;22499;-92
2024/02/22 23:54:04;;;;;;;1.70;1.10;;;;;;;9.08;84.59;97167.02;270646;1273;23354;-92
